Meramec River (Missouri), Eureka (07019000)

StateMissouriLatestUnknown (3230 cfs)
RiverMeramec RiverRatingObservedEstimated
Updated2021-02-27 16:00 (24 minutes ago)Flood - The river is flooding. Obstacles can be treacherous or deadly. The river should be avoided at this stage for casual trips and definitely for the inexperienced. Trips should be attempted only with protective gear and equipment.Flood(none)(none)
Discharge3230 cfs (median: 2360 cfs)High - The river is high and potentially dangerous, especially for the young and / or inexperienced. Normal stream obstacles are sometimes difficult to navigate. Extended distances can be attempted, but canoe travel may not be advisable.High(none)(none)
Height5.19 feetGood - Conditions are ideal for a canoe or kayak. Boats typically will drag on fewer than one-quarter of riffles, if at all, and portages are unnecessary or rare. Normal float lengths can be attempted without a problem.Good(none)(none)
TrendFalling (falling over 24 hours)Low - River is low but can still be floated. Some riffles are okay but most come with significant dragging and might need a portage. Float lengths should be reduced to accommodate low flow, dragging, and portages.Low(none)(none)
USGSExternal icon USGS Site (External icon Google Maps)Poor - River is too low to float comfortably. Most or all riffles will drag or must be portaged and some obstacles (such as slick shelf rock) cause undue problems. Avoid the river at this stage for casual paddling trips.Poor(none)(none)

Trending Data

Plot Image

Trips for Meramec River (Missouri), Eureka (07019000)

DateStartEndDistanceConditionDischargeHeightFishingDetails

A total of 0 rows are displayed.

Condition Descriptions

Fishing Conditions

Fish Species

Notes

Classic Trip List

The classic River Trips application is still available for use. It is updated with the new system using a data retrofit. It is no longer maintained. The original River Trips application is no longer updated (as of 1 Dec 2016) but can be checked for errors or for the condition of the data before it was converted to the new system.

Gauge Data Table

ObservationHeightDischargeMaximum
Discharge
Minimum
Discharge
Mean
Discharge
P05P10P20P25P50
(Median)
P75P80P90P95
2021-02-27 16:00 5.19 3230 62900 (1985) 517 (1954) 5470 742 960 1260 1520 2360 5010 5920 14600 21700
2021-02-27 15:30 5.21 3260 62900 (1985) 517 (1954) 5470 742 960 1260 1520 2360 5010 5920 14600 21700
2021-02-27 15:00 5.21 3260 62900 (1985) 517 (1954) 5470 742 960 1260 1520 2360 5010 5920 14600 21700
2021-02-27 14:30 5.21 3260 62900 (1985) 517 (1954) 5470 742 960 1260 1520 2360 5010 5920 14600 21700
2021-02-27 14:00 5.22 3270 62900 (1985) 517 (1954) 5470 742 960 1260 1520 2360 5010 5920 14600 21700
2021-02-27 13:30 5.23 3290 62900 (1985) 517 (1954) 5470 742 960 1260 1520 2360 5010 5920 14600 21700
2021-02-27 13:00 5.24 3300 62900 (1985) 517 (1954) 5470 742 960 1260 1520 2360 5010 5920 14600 21700
2021-02-27 12:30 5.23 3290 62900 (1985) 517 (1954) 5470 742 960 1260 1520 2360 5010 5920 14600 21700
2021-02-27 12:00 5.24 3300 62900 (1985) 517 (1954) 5470 742 960 1260 1520 2360 5010 5920 14600 21700
2021-02-27 11:30 5.25 3320 62900 (1985) 517 (1954) 5470 742 960 1260 1520 2360 5010 5920 14600 21700
2021-02-27 11:00 5.24 3300 62900 (1985) 517 (1954) 5470 742 960 1260 1520 2360 5010 5920 14600 21700
2021-02-27 10:30 5.27 3350 62900 (1985) 517 (1954) 5470 742 960 1260 1520 2360 5010 5920 14600 21700
2021-02-27 10:00 5.25 3320 62900 (1985) 517 (1954) 5470 742 960 1260 1520 2360 5010 5920 14600 21700
2021-02-27 09:30 5.27 3350 62900 (1985) 517 (1954) 5470 742 960 1260 1520 2360 5010 5920 14600 21700
2021-02-27 09:00 5.28 3360 62900 (1985) 517 (1954) 5470 742 960 1260 1520 2360 5010 5920 14600 21700
2021-02-27 08:30 5.27 3350 62900 (1985) 517 (1954) 5470 742 960 1260 1520 2360 5010 5920 14600 21700
2021-02-27 08:00 5.28 3360 62900 (1985) 517 (1954) 5470 742 960 1260 1520 2360 5010 5920 14600 21700
2021-02-27 07:30 5.28 3360 62900 (1985) 517 (1954) 5470 742 960 1260 1520 2360 5010 5920 14600 21700
2021-02-27 07:00 5.29 3380 62900 (1985) 517 (1954) 5470 742 960 1260 1520 2360 5010 5920 14600 21700
2021-02-27 06:30 5.30 3390 62900 (1985) 517 (1954) 5470 742 960 1260 1520 2360 5010 5920 14600 21700
2021-02-27 06:00 5.30 3390 62900 (1985) 517 (1954) 5470 742 960 1260 1520 2360 5010 5920 14600 21700
2021-02-27 05:30 5.31 3410 62900 (1985) 517 (1954) 5470 742 960 1260 1520 2360 5010 5920 14600 21700
2021-02-27 05:00 5.29 3380 62900 (1985) 517 (1954) 5470 742 960 1260 1520 2360 5010 5920 14600 21700
2021-02-27 04:30 5.32 3430 62900 (1985) 517 (1954) 5470 742 960 1260 1520 2360 5010 5920 14600 21700
2021-02-27 04:00 5.32 3430 62900 (1985) 517 (1954) 5470 742 960 1260 1520 2360 5010 5920 14600 21700
2021-02-27 03:30 5.33 3440 62900 (1985) 517 (1954) 5470 742 960 1260 1520 2360 5010 5920 14600 21700
2021-02-27 03:00 5.33 3440 62900 (1985) 517 (1954) 5470 742 960 1260 1520 2360 5010 5920 14600 21700
2021-02-27 02:30 5.34 3460 62900 (1985) 517 (1954) 5470 742 960 1260 1520 2360 5010 5920 14600 21700
2021-02-27 02:00 5.33 3440 62900 (1985) 517 (1954) 5470 742 960 1260 1520 2360 5010 5920 14600 21700
2021-02-27 01:30 5.35 3470 62900 (1985) 517 (1954) 5470 742 960 1260 1520 2360 5010 5920 14600 21700
2021-02-27 01:00 5.34 3460 62900 (1985) 517 (1954) 5470 742 960 1260 1520 2360 5010 5920 14600 21700
2021-02-27 00:30 5.37 3500 62900 (1985) 517 (1954) 5470 742 960 1260 1520 2360 5010 5920 14600 21700
2021-02-27 00:00 5.35 3470 62900 (1985) 517 (1954) 5470 742 960 1260 1520 2360 5010 5920 14600 21700
2021-02-26 23:30 5.36 3490 73700 (1985) 542 (1954) 5450 739 953 1230 1380 2320 5480 6460 13500 18700
2021-02-26 23:00 5.37 3500 73700 (1985) 542 (1954) 5450 739 953 1230 1380 2320 5480 6460 13500 18700
2021-02-26 22:30 5.36 3490 73700 (1985) 542 (1954) 5450 739 953 1230 1380 2320 5480 6460 13500 18700
2021-02-26 22:00 5.38 3520 73700 (1985) 542 (1954) 5450 739 953 1230 1380 2320 5480 6460 13500 18700
2021-02-26 21:30 5.40 3550 73700 (1985) 542 (1954) 5450 739 953 1230 1380 2320 5480 6460 13500 18700
2021-02-26 21:00 5.40 3550 73700 (1985) 542 (1954) 5450 739 953 1230 1380 2320 5480 6460 13500 18700
2021-02-26 20:30 5.39 3530 73700 (1985) 542 (1954) 5450 739 953 1230 1380 2320 5480 6460 13500 18700
2021-02-26 20:00 5.40 3550 73700 (1985) 542 (1954) 5450 739 953 1230 1380 2320 5480 6460 13500 18700
2021-02-26 19:30 5.40 3550 73700 (1985) 542 (1954) 5450 739 953 1230 1380 2320 5480 6460 13500 18700
2021-02-26 19:00 5.40 3550 73700 (1985) 542 (1954) 5450 739 953 1230 1380 2320 5480 6460 13500 18700
2021-02-26 18:30 5.42 3580 73700 (1985) 542 (1954) 5450 739 953 1230 1380 2320 5480 6460 13500 18700
2021-02-26 18:00 5.42 3580 73700 (1985) 542 (1954) 5450 739 953 1230 1380 2320 5480 6460 13500 18700
2021-02-26 17:30 5.41 3560 73700 (1985) 542 (1954) 5450 739 953 1230 1380 2320 5480 6460 13500 18700
2021-02-26 17:00 5.43 3590 73700 (1985) 542 (1954) 5450 739 953 1230 1380 2320 5480 6460 13500 18700
2021-02-26 16:30 5.43 3590 73700 (1985) 542 (1954) 5450 739 953 1230 1380 2320 5480 6460 13500 18700
2021-02-26 16:00 5.44 3610 73700 (1985) 542 (1954) 5450 739 953 1230 1380 2320 5480 6460 13500 18700
2021-02-26 15:30 5.45 3620 73700 (1985) 542 (1954) 5450 739 953 1230 1380 2320 5480 6460 13500 18700
2021-02-26 15:00 5.45 3620 73700 (1985) 542 (1954) 5450 739 953 1230 1380 2320 5480 6460 13500 18700
2021-02-26 14:30 5.45 3620 73700 (1985) 542 (1954) 5450 739 953 1230 1380 2320 5480 6460 13500 18700
2021-02-26 14:00 5.47 3650 73700 (1985) 542 (1954) 5450 739 953 1230 1380 2320 5480 6460 13500 18700
2021-02-26 13:30 5.47 3650 73700 (1985) 542 (1954) 5450 739 953 1230 1380 2320 5480 6460 13500 18700
2021-02-26 13:00 5.47 3650 73700 (1985) 542 (1954) 5450 739 953 1230 1380 2320 5480 6460 13500 18700
2021-02-26 12:30 5.48 3670 73700 (1985) 542 (1954) 5450 739 953 1230 1380 2320 5480 6460 13500 18700
2021-02-26 12:00 5.49 3690 73700 (1985) 542 (1954) 5450 739 953 1230 1380 2320 5480 6460 13500 18700
2021-02-26 11:30 5.50 3700 73700 (1985) 542 (1954) 5450 739 953 1230 1380 2320 5480 6460 13500 18700
2021-02-26 11:00 5.49 3690 73700 (1985) 542 (1954) 5450 739 953 1230 1380 2320 5480 6460 13500 18700
2021-02-26 10:30 5.49 3690 73700 (1985) 542 (1954) 5450 739 953 1230 1380 2320 5480 6460 13500 18700
2021-02-26 10:00 5.50 3700 73700 (1985) 542 (1954) 5450 739 953 1230 1380 2320 5480 6460 13500 18700
2021-02-26 09:30 5.53 3750 73700 (1985) 542 (1954) 5450 739 953 1230 1380 2320 5480 6460 13500 18700
2021-02-26 09:00 5.51 3720 73700 (1985) 542 (1954) 5450 739 953 1230 1380 2320 5480 6460 13500 18700
2021-02-26 08:30 5.52 3730 73700 (1985) 542 (1954) 5450 739 953 1230 1380 2320 5480 6460 13500 18700
2021-02-26 08:00 5.51 3720 73700 (1985) 542 (1954) 5450 739 953 1230 1380 2320 5480 6460 13500 18700
2021-02-26 07:30 5.54 3760 73700 (1985) 542 (1954) 5450 739 953 1230 1380 2320 5480 6460 13500 18700
2021-02-26 07:00 5.53 3750 73700 (1985) 542 (1954) 5450 739 953 1230 1380 2320 5480 6460 13500 18700
2021-02-26 06:30 5.54 3760 73700 (1985) 542 (1954) 5450 739 953 1230 1380 2320 5480 6460 13500 18700
2021-02-26 06:00 5.54 3760 73700 (1985) 542 (1954) 5450 739 953 1230 1380 2320 5480 6460 13500 18700
2021-02-26 05:30 5.56 3790 73700 (1985) 542 (1954) 5450 739 953 1230 1380 2320 5480 6460 13500 18700
2021-02-26 05:00 5.57 3810 73700 (1985) 542 (1954) 5450 739 953 1230 1380 2320 5480 6460 13500 18700
2021-02-26 04:30 5.57 3810 73700 (1985) 542 (1954) 5450 739 953 1230 1380 2320 5480 6460 13500 18700
2021-02-26 04:00 5.57 3810 73700 (1985) 542 (1954) 5450 739 953 1230 1380 2320 5480 6460 13500 18700
2021-02-26 03:30 5.57 3810 73700 (1985) 542 (1954) 5450 739 953 1230 1380 2320 5480 6460 13500 18700
2021-02-26 03:00 5.58 3830 73700 (1985) 542 (1954) 5450 739 953 1230 1380 2320 5480 6460 13500 18700
2021-02-26 02:30 5.59 3840 73700 (1985) 542 (1954) 5450 739 953 1230 1380 2320 5480 6460 13500 18700
2021-02-26 02:00 5.59 3840 73700 (1985) 542 (1954) 5450 739 953 1230 1380 2320 5480 6460 13500 18700
2021-02-26 01:30 5.58 3830 73700 (1985) 542 (1954) 5450 739 953 1230 1380 2320 5480 6460 13500 18700
2021-02-26 01:00 5.58 3830 73700 (1985) 542 (1954) 5450 739 953 1230 1380 2320 5480 6460 13500 18700
2021-02-26 00:30 5.58 3830 73700 (1985) 542 (1954) 5450 739 953 1230 1380 2320 5480 6460 13500 18700
2021-02-26 00:00 5.58 3830 73700 (1985) 542 (1954) 5450 739 953 1230 1380 2320 5480 6460 13500 18700
2021-02-25 23:30 5.58 3830 62500 (1985) 560 (1954) 5030 729 901 1230 1350 2290 5270 6970 10100 15900
2021-02-25 23:00 5.61 3870 62500 (1985) 560 (1954) 5030 729 901 1230 1350 2290 5270 6970 10100 15900
2021-02-25 22:30 5.60 3860 62500 (1985) 560 (1954) 5030 729 901 1230 1350 2290 5270 6970 10100 15900
2021-02-25 22:00 5.60 3860 62500 (1985) 560 (1954) 5030 729 901 1230 1350 2290 5270 6970 10100 15900
2021-02-25 21:30 5.60 3860 62500 (1985) 560 (1954) 5030 729 901 1230 1350 2290 5270 6970 10100 15900
2021-02-25 21:00 5.60 3860 62500 (1985) 560 (1954) 5030 729 901 1230 1350 2290 5270 6970 10100 15900
2021-02-25 20:30 5.61 3870 62500 (1985) 560 (1954) 5030 729 901 1230 1350 2290 5270 6970 10100 15900
2021-02-25 20:00 5.61 3870 62500 (1985) 560 (1954) 5030 729 901 1230 1350 2290 5270 6970 10100 15900
2021-02-25 19:30 5.60 3860 62500 (1985) 560 (1954) 5030 729 901 1230 1350 2290 5270 6970 10100 15900
2021-02-25 19:00 5.60 3860 62500 (1985) 560 (1954) 5030 729 901 1230 1350 2290 5270 6970 10100 15900
2021-02-25 18:30 5.61 3870 62500 (1985) 560 (1954) 5030 729 901 1230 1350 2290 5270 6970 10100 15900
2021-02-25 18:00 5.60 3860 62500 (1985) 560 (1954) 5030 729 901 1230 1350 2290 5270 6970 10100 15900
2021-02-25 17:30 5.60 3860 62500 (1985) 560 (1954) 5030 729 901 1230 1350 2290 5270 6970 10100 15900
2021-02-25 17:00 5.60 3860 62500 (1985) 560 (1954) 5030 729 901 1230 1350 2290 5270 6970 10100 15900
2021-02-25 16:30 5.61 3870 62500 (1985) 560 (1954) 5030 729 901 1230 1350 2290 5270 6970 10100 15900
2021-02-25 16:00 5.60 3860 62500 (1985) 560 (1954) 5030 729 901 1230 1350 2290 5270 6970 10100 15900
2021-02-25 15:30 5.59 3840 62500 (1985) 560 (1954) 5030 729 901 1230 1350 2290 5270 6970 10100 15900
2021-02-25 15:00 5.62 3890 62500 (1985) 560 (1954) 5030 729 901 1230 1350 2290 5270 6970 10100 15900
2021-02-25 14:30 5.60 3860 62500 (1985) 560 (1954) 5030 729 901 1230 1350 2290 5270 6970 10100 15900
2021-02-25 14:00 5.60 3860 62500 (1985) 560 (1954) 5030 729 901 1230 1350 2290 5270 6970 10100 15900
2021-02-25 13:30 5.61 3870 62500 (1985) 560 (1954) 5030 729 901 1230 1350 2290 5270 6970 10100 15900
2021-02-25 13:00 5.60 3860 62500 (1985) 560 (1954) 5030 729 901 1230 1350 2290 5270 6970 10100 15900
2021-02-25 12:30 5.60 3860 62500 (1985) 560 (1954) 5030 729 901 1230 1350 2290 5270 6970 10100 15900
2021-02-25 12:00 5.59 3840 62500 (1985) 560 (1954) 5030 729 901 1230 1350 2290 5270 6970 10100 15900
2021-02-25 11:30 5.61 3870 62500 (1985) 560 (1954) 5030 729 901 1230 1350 2290 5270 6970 10100 15900
2021-02-25 11:00 5.58 3830 62500 (1985) 560 (1954) 5030 729 901 1230 1350 2290 5270 6970 10100 15900
2021-02-25 10:30 5.59 3840 62500 (1985) 560 (1954) 5030 729 901 1230 1350 2290 5270 6970 10100 15900
2021-02-25 10:00 5.59 3840 62500 (1985) 560 (1954) 5030 729 901 1230 1350 2290 5270 6970 10100 15900
2021-02-25 09:30 5.58 3830 62500 (1985) 560 (1954) 5030 729 901 1230 1350 2290 5270 6970 10100 15900
2021-02-25 09:00 5.60 3860 62500 (1985) 560 (1954) 5030 729 901 1230 1350 2290 5270 6970 10100 15900
2021-02-25 08:30 5.59 3840 62500 (1985) 560 (1954) 5030 729 901 1230 1350 2290 5270 6970 10100 15900
2021-02-25 08:00 5.59 3840 62500 (1985) 560 (1954) 5030 729 901 1230 1350 2290 5270 6970 10100 15900
2021-02-25 07:30 5.58 3830 62500 (1985) 560 (1954) 5030 729 901 1230 1350 2290 5270 6970 10100 15900
2021-02-25 07:00 5.59 3840 62500 (1985) 560 (1954) 5030 729 901 1230 1350 2290 5270 6970 10100 15900
2021-02-25 06:30 5.56 3790 62500 (1985) 560 (1954) 5030 729 901 1230 1350 2290 5270 6970 10100 15900
2021-02-25 06:00 5.58 3830 62500 (1985) 560 (1954) 5030 729 901 1230 1350 2290 5270 6970 10100 15900
2021-02-25 05:30 5.58 3830 62500 (1985) 560 (1954) 5030 729 901 1230 1350 2290 5270 6970 10100 15900
2021-02-25 05:00 5.57 3810 62500 (1985) 560 (1954) 5030 729 901 1230 1350 2290 5270 6970 10100 15900
2021-02-25 04:30 5.57 3810 62500 (1985) 560 (1954) 5030 729 901 1230 1350 2290 5270 6970 10100 15900
2021-02-25 04:00 5.57 3810 62500 (1985) 560 (1954) 5030 729 901 1230 1350 2290 5270 6970 10100 15900
2021-02-25 03:30 5.57 3810 62500 (1985) 560 (1954) 5030 729 901 1230 1350 2290 5270 6970 10100 15900
2021-02-25 03:00 5.56 3790 62500 (1985) 560 (1954) 5030 729 901 1230 1350 2290 5270 6970 10100 15900
2021-02-25 02:30 5.55 3780 62500 (1985) 560 (1954) 5030 729 901 1230 1350 2290 5270 6970 10100 15900
2021-02-25 02:00 5.57 3810 62500 (1985) 560 (1954) 5030 729 901 1230 1350 2290 5270 6970 10100 15900
2021-02-25 01:30 5.57 3810 62500 (1985) 560 (1954) 5030 729 901 1230 1350 2290 5270 6970 10100 15900
2021-02-25 01:00 5.55 3780 62500 (1985) 560 (1954) 5030 729 901 1230 1350 2290 5270 6970 10100 15900
2021-02-25 00:30 5.56 3790 62500 (1985) 560 (1954) 5030 729 901 1230 1350 2290 5270 6970 10100 15900
2021-02-25 00:00 5.57 3810 62500 (1985) 560 (1954) 5030 729 901 1230 1350 2290 5270 6970 10100 15900
2021-02-24 23:30 5.55 3780 44100 (1985) 532 (1934) 4700 724 901 1230 1400 2390 4720 6220 11400 14400
2021-02-24 23:00 5.56 3790 44100 (1985) 532 (1934) 4700 724 901 1230 1400 2390 4720 6220 11400 14400
2021-02-24 22:30 5.55 3780 44100 (1985) 532 (1934) 4700 724 901 1230 1400 2390 4720 6220 11400 14400
2021-02-24 22:00 5.57 3810 44100 (1985) 532 (1934) 4700 724 901 1230 1400 2390 4720 6220 11400 14400
2021-02-24 21:30 5.56 3790 44100 (1985) 532 (1934) 4700 724 901 1230 1400 2390 4720 6220 11400 14400
2021-02-24 21:00 5.54 3760 44100 (1985) 532 (1934) 4700 724 901 1230 1400 2390 4720 6220 11400 14400
2021-02-24 20:30 5.55 3780 44100 (1985) 532 (1934) 4700 724 901 1230 1400 2390 4720 6220 11400 14400
2021-02-24 20:00 5.55 3780 44100 (1985) 532 (1934) 4700 724 901 1230 1400 2390 4720 6220 11400 14400
2021-02-24 19:30 5.52 3730 44100 (1985) 532 (1934) 4700 724 901 1230 1400 2390 4720 6220 11400 14400
2021-02-24 19:00 5.54 3760 44100 (1985) 532 (1934) 4700 724 901 1230 1400 2390 4720 6220 11400 14400
2021-02-24 18:30 5.53 3750 44100 (1985) 532 (1934) 4700 724 901 1230 1400 2390 4720 6220 11400 14400
2021-02-24 18:00 5.51 3720 44100 (1985) 532 (1934) 4700 724 901 1230 1400 2390 4720 6220 11400 14400
2021-02-24 17:30 5.52 3730 44100 (1985) 532 (1934) 4700 724 901 1230 1400 2390 4720 6220 11400 14400
2021-02-24 17:00 5.51 3720 44100 (1985) 532 (1934) 4700 724 901 1230 1400 2390 4720 6220 11400 14400
2021-02-24 16:30 5.49 3690 44100 (1985) 532 (1934) 4700 724 901 1230 1400 2390 4720 6220 11400 14400
2021-02-24 16:00 5.50 3700 44100 (1985) 532 (1934) 4700 724 901 1230 1400 2390 4720 6220 11400 14400
2021-02-24 15:30 5.48 3670 44100 (1985) 532 (1934) 4700 724 901 1230 1400 2390 4720 6220 11400 14400
2021-02-24 15:00 5.47 3650 44100 (1985) 532 (1934) 4700 724 901 1230 1400 2390 4720 6220 11400 14400
2021-02-24 14:30 5.45 3620 44100 (1985) 532 (1934) 4700 724 901 1230 1400 2390 4720 6220 11400 14400
2021-02-24 14:00 5.45 3620 44100 (1985) 532 (1934) 4700 724 901 1230 1400 2390 4720 6220 11400 14400
2021-02-24 13:30 5.44 3610 44100 (1985) 532 (1934) 4700 724 901 1230 1400 2390 4720 6220 11400 14400
2021-02-24 13:00 5.42 3580 44100 (1985) 532 (1934) 4700 724 901 1230 1400 2390 4720 6220 11400 14400
2021-02-24 12:30 5.40 3550 44100 (1985) 532 (1934) 4700 724 901 1230 1400 2390 4720 6220 11400 14400
2021-02-24 12:00 5.40 3550 44100 (1985) 532 (1934) 4700 724 901 1230 1400 2390 4720 6220 11400 14400
2021-02-24 11:30 5.38 3520 44100 (1985) 532 (1934) 4700 724 901 1230 1400 2390 4720 6220 11400 14400
2021-02-24 11:00 5.37 3500 44100 (1985) 532 (1934) 4700 724 901 1230 1400 2390 4720 6220 11400 14400
2021-02-24 10:30 5.35 3470 44100 (1985) 532 (1934) 4700 724 901 1230 1400 2390 4720 6220 11400 14400
2021-02-24 10:00 5.32 3430 44100 (1985) 532 (1934) 4700 724 901 1230 1400 2390 4720 6220 11400 14400
2021-02-24 09:30 5.30 3390 44100 (1985) 532 (1934) 4700 724 901 1230 1400 2390 4720 6220 11400 14400
2021-02-24 09:00 5.29 3380 44100 (1985) 532 (1934) 4700 724 901 1230 1400 2390 4720 6220 11400 14400
2021-02-24 08:30 5.25 3320 44100 (1985) 532 (1934) 4700 724 901 1230 1400 2390 4720 6220 11400 14400
2021-02-24 08:00 5.25 3320 44100 (1985) 532 (1934) 4700 724 901 1230 1400 2390 4720 6220 11400 14400
2021-02-24 07:30 5.22 3270 44100 (1985) 532 (1934) 4700 724 901 1230 1400 2390 4720 6220 11400 14400
2021-02-24 07:00 5.20 3240 44100 (1985) 532 (1934) 4700 724 901 1230 1400 2390 4720 6220 11400 14400
2021-02-24 06:30 5.16 3180 44100 (1985) 532 (1934) 4700 724 901 1230 1400 2390 4720 6220 11400 14400
2021-02-24 06:00 5.13 3140 44100 (1985) 532 (1934) 4700 724 901 1230 1400 2390 4720 6220 11400 14400
2021-02-24 05:30 5.11 3110 44100 (1985) 532 (1934) 4700 724 901 1230 1400 2390 4720 6220 11400 14400
2021-02-24 05:00 5.09 3080 44100 (1985) 532 (1934) 4700 724 901 1230 1400 2390 4720 6220 11400 14400
2021-02-24 04:30 5.06 3040 44100 (1985) 532 (1934) 4700 724 901 1230 1400 2390 4720 6220 11400 14400
2021-02-24 04:00 5.05 3020 44100 (1985) 532 (1934) 4700 724 901 1230 1400 2390 4720 6220 11400 14400
2021-02-24 03:30 5.01 2960 44100 (1985) 532 (1934) 4700 724 901 1230 1400 2390 4720 6220 11400 14400
2021-02-24 03:00 4.99 2930 44100 (1985) 532 (1934) 4700 724 901 1230 1400 2390 4720 6220 11400 14400
2021-02-24 02:30 4.99 2930 44100 (1985) 532 (1934) 4700 724 901 1230 1400 2390 4720 6220 11400 14400
2021-02-24 02:00 4.96 2890 44100 (1985) 532 (1934) 4700 724 901 1230 1400 2390 4720 6220 11400 14400
2021-02-24 01:30 4.95 2880 44100 (1985) 532 (1934) 4700 724 901 1230 1400 2390 4720 6220 11400 14400
2021-02-24 01:00 4.94 2860 44100 (1985) 532 (1934) 4700 724 901 1230 1400 2390 4720 6220 11400 14400
2021-02-24 00:30 4.93 2850 44100 (1985) 532 (1934) 4700 724 901 1230 1400 2390 4720 6220 11400 14400
2021-02-24 00:00 4.92 2830 44100 (1985) 532 (1934) 4700 724 901 1230 1400 2390 4720 6220 11400 14400
2021-02-23 23:30 4.91 2820 29700 (1985) 562 (1934) 4450 735 906 1180 1410 2470 4420 6270 11200 18200
2021-02-23 23:00 4.92 2830 29700 (1985) 562 (1934) 4450 735 906 1180 1410 2470 4420 6270 11200 18200
2021-02-23 22:30 4.90 2800 29700 (1985) 562 (1934) 4450 735 906 1180 1410 2470 4420 6270 11200 18200
2021-02-23 22:00 4.89 2790 29700 (1985) 562 (1934) 4450 735 906 1180 1410 2470 4420 6270 11200 18200
2021-02-23 21:30 4.89 2790 29700 (1985) 562 (1934) 4450 735 906 1180 1410 2470 4420 6270 11200 18200
2021-02-23 21:00 4.88 2780 29700 (1985) 562 (1934) 4450 735 906 1180 1410 2470 4420 6270 11200 18200
2021-02-23 20:30 4.88 2780 29700 (1985) 562 (1934) 4450 735 906 1180 1410 2470 4420 6270 11200 18200
2021-02-23 20:00 4.88 2780 29700 (1985) 562 (1934) 4450 735 906 1180 1410 2470 4420 6270 11200 18200
2021-02-23 19:30 4.88 2780 29700 (1985) 562 (1934) 4450 735 906 1180 1410 2470 4420 6270 11200 18200
2021-02-23 19:00 4.88 2780 29700 (1985) 562 (1934) 4450 735 906 1180 1410 2470 4420 6270 11200 18200
2021-02-23 18:30 4.88 2780 29700 (1985) 562 (1934) 4450 735 906 1180 1410 2470 4420 6270 11200 18200
2021-02-23 18:00 4.88 2780 29700 (1985) 562 (1934) 4450 735 906 1180 1410 2470 4420 6270 11200 18200
2021-02-23 17:30 4.88 2780 29700 (1985) 562 (1934) 4450 735 906 1180 1410 2470 4420 6270 11200 18200
2021-02-23 17:00 4.89 2790 29700 (1985) 562 (1934) 4450 735 906 1180 1410 2470 4420 6270 11200 18200
2021-02-23 16:30 4.89 2790 29700 (1985) 562 (1934) 4450 735 906 1180 1410 2470 4420 6270 11200 18200
2021-02-23 16:00 4.89 2790 29700 (1985) 562 (1934) 4450 735 906 1180 1410 2470 4420 6270 11200 18200
2021-02-23 15:30 4.90 2800 29700 (1985) 562 (1934) 4450 735 906 1180 1410 2470 4420 6270 11200 18200
2021-02-23 15:00 4.91 2820 29700 (1985) 562 (1934) 4450 735 906 1180 1410 2470 4420 6270 11200 18200
2021-02-23 14:30 4.90 2800 29700 (1985) 562 (1934) 4450 735 906 1180 1410 2470 4420 6270 11200 18200
2021-02-23 14:00 4.92 2830 29700 (1985) 562 (1934) 4450 735 906 1180 1410 2470 4420 6270 11200 18200
2021-02-23 13:30 4.93 2850 29700 (1985) 562 (1934) 4450 735 906 1180 1410 2470 4420 6270 11200 18200
2021-02-23 13:00 4.91 2820 29700 (1985) 562 (1934) 4450 735 906 1180 1410 2470 4420 6270 11200 18200
2021-02-23 12:30 4.92 2830 29700 (1985) 562 (1934) 4450 735 906 1180 1410 2470 4420 6270 11200 18200
2021-02-23 12:00 4.91 2820 29700 (1985) 562 (1934) 4450 735 906 1180 1410 2470 4420 6270 11200 18200
2021-02-23 11:30 4.93 2850 29700 (1985) 562 (1934) 4450 735 906 1180 1410 2470 4420 6270 11200 18200
2021-02-23 11:00 4.92 2830 29700 (1985) 562 (1934) 4450 735 906 1180 1410 2470 4420 6270 11200 18200
2021-02-23 10:30 4.93 2850 29700 (1985) 562 (1934) 4450 735 906 1180 1410 2470 4420 6270 11200 18200
2021-02-23 10:00 4.91 2820 29700 (1985) 562 (1934) 4450 735 906 1180 1410 2470 4420 6270 11200 18200
2021-02-23 09:30 4.91 2820 29700 (1985) 562 (1934) 4450 735 906 1180 1410 2470 4420 6270 11200 18200
2021-02-23 09:00 4.91 2820 29700 (1985) 562 (1934) 4450 735 906 1180 1410 2470 4420 6270 11200 18200
2021-02-23 08:30 4.89 2790 29700 (1985) 562 (1934) 4450 735 906 1180 1410 2470 4420 6270 11200 18200
2021-02-23 08:00 4.88 2780 29700 (1985) 562 (1934) 4450 735 906 1180 1410 2470 4420 6270 11200 18200
2021-02-23 07:30 4.87 2760 29700 (1985) 562 (1934) 4450 735 906 1180 1410 2470 4420 6270 11200 18200
2021-02-23 07:00 4.87 2760 29700 (1985) 562 (1934) 4450 735 906 1180 1410 2470 4420 6270 11200 18200
2021-02-23 06:30 4.86 2750 29700 (1985) 562 (1934) 4450 735 906 1180 1410 2470 4420 6270 11200 18200
2021-02-23 06:00 4.85 2730 29700 (1985) 562 (1934) 4450 735 906 1180 1410 2470 4420 6270 11200 18200
2021-02-23 05:30 4.82 2690 29700 (1985) 562 (1934) 4450 735 906 1180 1410 2470 4420 6270 11200 18200
2021-02-23 05:00 4.81 2680 29700 (1985) 562 (1934) 4450 735 906 1180 1410 2470 4420 6270 11200 18200
2021-02-23 04:30 4.80 2660 29700 (1985) 562 (1934) 4450 735 906 1180 1410 2470 4420 6270 11200 18200
2021-02-23 04:00 4.79 2650 29700 (1985) 562 (1934) 4450 735 906 1180 1410 2470 4420 6270 11200 18200
2021-02-23 03:30 4.77 2620 29700 (1985) 562 (1934) 4450 735 906 1180 1410 2470 4420 6270 11200 18200
2021-02-23 03:00 4.77 2620 29700 (1985) 562 (1934) 4450 735 906 1180 1410 2470 4420 6270 11200 18200
2021-02-23 02:30 4.75 2590 29700 (1985) 562 (1934) 4450 735 906 1180 1410 2470 4420 6270 11200 18200
2021-02-23 02:00 4.75 2590 29700 (1985) 562 (1934) 4450 735 906 1180 1410 2470 4420 6270 11200 18200
2021-02-23 01:30 4.74 2580 29700 (1985) 562 (1934) 4450 735 906 1180 1410 2470 4420 6270 11200 18200
2021-02-23 01:00 4.73 2560 29700 (1985) 562 (1934) 4450 735 906 1180 1410 2470 4420 6270 11200 18200
2021-02-23 00:30 4.71 2530 29700 (1985) 562 (1934) 4450 735 906 1180 1410 2470 4420 6270 11200 18200
2021-02-23 00:00 4.70 2520 29700 (1985) 562 (1934) 4450 735 906 1180 1410 2470 4420 6270 11200 18200
2021-02-22 23:30 4.70 2520 33700 (1951) 562 (1934) 4280 772 941 1140 1350 2490 3760 5000 11900 16900
2021-02-22 23:00 4.69 2510 33700 (1951) 562 (1934) 4280 772 941 1140 1350 2490 3760 5000 11900 16900
2021-02-22 22:30 4.67 2480 33700 (1951) 562 (1934) 4280 772 941 1140 1350 2490 3760 5000 11900 16900
2021-02-22 22:00 4.65 2450 33700 (1951) 562 (1934) 4280 772 941 1140 1350 2490 3760 5000 11900 16900
2021-02-22 21:30 4.65 2450 33700 (1951) 562 (1934) 4280 772 941 1140 1350 2490 3760 5000 11900 16900
2021-02-22 21:00 4.64 2440 33700 (1951) 562 (1934) 4280 772 941 1140 1350 2490 3760 5000 11900 16900
2021-02-22 20:30 4.64 2440 33700 (1951) 562 (1934) 4280 772 941 1140 1350 2490 3760 5000 11900 16900
2021-02-22 20:00 4.61 2400 33700 (1951) 562 (1934) 4280 772 941 1140 1350 2490 3760 5000 11900 16900
2021-02-22 19:30 4.60 2380 33700 (1951) 562 (1934) 4280 772 941 1140 1350 2490 3760 5000 11900 16900
2021-02-22 19:00 4.59 2370 33700 (1951) 562 (1934) 4280 772 941 1140 1350 2490 3760 5000 11900 16900
2021-02-22 18:30 4.58 2350 33700 (1951) 562 (1934) 4280 772 941 1140 1350 2490 3760 5000 11900 16900
2021-02-22 18:00 4.55 2310 33700 (1951) 562 (1934) 4280 772 941 1140 1350 2490 3760 5000 11900 16900
2021-02-22 17:30 4.53 2290 33700 (1951) 562 (1934) 4280 772 941 1140 1350 2490 3760 5000 11900 16900
2021-02-22 17:00 4.50 2240 33700 (1951) 562 (1934) 4280 772 941 1140 1350 2490 3760 5000 11900 16900
2021-02-22 16:30 4.49 2230 33700 (1951) 562 (1934) 4280 772 941 1140 1350 2490 3760 5000 11900 16900
2021-02-22 16:00 4.47 2200 33700 (1951) 562 (1934) 4280 772 941 1140 1350 2490 3760 5000 11900 16900
2021-02-22 15:30 4.45 2180 33700 (1951) 562 (1934) 4280 772 941 1140 1350 2490 3760 5000 11900 16900
2021-02-22 15:00 4.45 2180 33700 (1951) 562 (1934) 4280 772 941 1140 1350 2490 3760 5000 11900 16900
2021-02-22 14:30 4.44 2160 33700 (1951) 562 (1934) 4280 772 941 1140 1350 2490 3760 5000 11900 16900
2021-02-22 14:00 4.43 2150 33700 (1951) 562 (1934) 4280 772 941 1140 1350 2490 3760 5000 11900 16900
2021-02-22 13:30 4.41 2120 33700 (1951) 562 (1934) 4280 772 941 1140 1350 2490 3760 5000 11900 16900
2021-02-22 13:00 4.41 2120 33700 (1951) 562 (1934) 4280 772 941 1140 1350 2490 3760 5000 11900 16900
2021-02-22 12:30 4.41 2120 33700 (1951) 562 (1934) 4280 772 941 1140 1350 2490 3760 5000 11900 16900
2021-02-22 12:00 4.41 2120 33700 (1951) 562 (1934) 4280 772 941 1140 1350 2490 3760 5000 11900 16900
2021-02-22 11:30 4.40 2110 33700 (1951) 562 (1934) 4280 772 941 1140 1350 2490 3760 5000 11900 16900
2021-02-22 11:00 4.41 2120 33700 (1951) 562 (1934) 4280 772 941 1140 1350 2490 3760 5000 11900 16900
2021-02-22 10:30 4.40 2110 33700 (1951) 562 (1934) 4280 772 941 1140 1350 2490 3760 5000 11900 16900
2021-02-22 10:00 4.40 2110 33700 (1951) 562 (1934) 4280 772 941 1140 1350 2490 3760 5000 11900 16900
2021-02-22 09:30 4.41 2120 33700 (1951) 562 (1934) 4280 772 941 1140 1350 2490 3760 5000 11900 16900
2021-02-22 09:00 4.41 2120 33700 (1951) 562 (1934) 4280 772 941 1140 1350 2490 3760 5000 11900 16900
2021-02-22 08:30 4.40 2110 33700 (1951) 562 (1934) 4280 772 941 1140 1350 2490 3760 5000 11900 16900
2021-02-22 08:00 4.41 2120 33700 (1951) 562 (1934) 4280 772 941 1140 1350 2490 3760 5000 11900 16900
2021-02-22 07:30 4.41 2120 33700 (1951) 562 (1934) 4280 772 941 1140 1350 2490 3760 5000 11900 16900
2021-02-22 07:00 4.41 2120 33700 (1951) 562 (1934) 4280 772 941 1140 1350 2490 3760 5000 11900 16900
2021-02-22 06:30 4.41 2120 33700 (1951) 562 (1934) 4280 772 941 1140 1350 2490 3760 5000 11900 16900
2021-02-22 06:00 4.41 2120 33700 (1951) 562 (1934) 4280 772 941 1140 1350 2490 3760 5000 11900 16900
2021-02-22 05:30 4.41 2120 33700 (1951) 562 (1934) 4280 772 941 1140 1350 2490 3760 5000 11900 16900
2021-02-22 05:00 4.42 2140 33700 (1951) 562 (1934) 4280 772 941 1140 1350 2490 3760 5000 11900 16900
2021-02-22 04:30 4.42 2140 33700 (1951) 562 (1934) 4280 772 941 1140 1350 2490 3760 5000 11900 16900
2021-02-22 04:00 4.42 2140 33700 (1951) 562 (1934) 4280 772 941 1140 1350 2490 3760 5000 11900 16900
2021-02-22 03:30 4.42 2140 33700 (1951) 562 (1934) 4280 772 941 1140 1350 2490 3760 5000 11900 16900
2021-02-22 03:00 4.42 2140 33700 (1951) 562 (1934) 4280 772 941 1140 1350 2490 3760 5000 11900 16900
2021-02-22 02:30 4.43 2150 33700 (1951) 562 (1934) 4280 772 941 1140 1350 2490 3760 5000 11900 16900
2021-02-22 02:00 4.43 2150 33700 (1951) 562 (1934) 4280 772 941 1140 1350 2490 3760 5000 11900 16900
2021-02-22 01:30 4.43 2150 33700 (1951) 562 (1934) 4280 772 941 1140 1350 2490 3760 5000 11900 16900
2021-02-22 01:00 4.44 2160 33700 (1951) 562 (1934) 4280 772 941 1140 1350 2490 3760 5000 11900 16900
2021-02-22 00:30 4.45 2180 33700 (1951) 562 (1934) 4280 772 941 1140 1350 2490 3760 5000 11900 16900
2021-02-22 00:00 4.46 2190 33700 (1951) 562 (1934) 4280 772 941 1140 1350 2490 3760 5000 11900 16900
2021-02-21 23:30 4.46 2190 42000 (1938) 562 (1934) 4170 807 925 1150 1410 2380 3760 4490 8630 15900
2021-02-21 23:00 4.47 2200 42000 (1938) 562 (1934) 4170 807 925 1150 1410 2380 3760 4490 8630 15900
2021-02-21 22:30 4.46 2190 42000 (1938) 562 (1934) 4170 807 925 1150 1410 2380 3760 4490 8630 15900
2021-02-21 22:00 4.46 2190 42000 (1938) 562 (1934) 4170 807 925 1150 1410 2380 3760 4490 8630 15900
2021-02-21 21:30 4.47 2200 42000 (1938) 562 (1934) 4170 807 925 1150 1410 2380 3760 4490 8630 15900
2021-02-21 21:00 4.46 2190 42000 (1938) 562 (1934) 4170 807 925 1150 1410 2380 3760 4490 8630 15900
2021-02-21 20:30 4.47 2200 42000 (1938) 562 (1934) 4170 807 925 1150 1410 2380 3760 4490 8630 15900
2021-02-21 20:00 4.47 2200 42000 (1938) 562 (1934) 4170 807 925 1150 1410 2380 3760 4490 8630 15900
2021-02-21 19:30 4.47 2200 42000 (1938) 562 (1934) 4170 807 925 1150 1410 2380 3760 4490 8630 15900
2021-02-21 19:00 4.48 2220 42000 (1938) 562 (1934) 4170 807 925 1150 1410 2380 3760 4490 8630 15900
2021-02-21 18:30 4.49 2230 42000 (1938) 562 (1934) 4170 807 925 1150 1410 2380 3760 4490 8630 15900
2021-02-21 18:00 4.49 2230 42000 (1938) 562 (1934) 4170 807 925 1150 1410 2380 3760 4490 8630 15900
2021-02-21 17:30 4.50 2240 42000 (1938) 562 (1934) 4170 807 925 1150 1410 2380 3760 4490 8630 15900
2021-02-21 17:00 4.50 2240 42000 (1938) 562 (1934) 4170 807 925 1150 1410 2380 3760 4490 8630 15900
2021-02-21 16:30 4.51 2260 42000 (1938) 562 (1934) 4170 807 925 1150 1410 2380 3760 4490 8630 15900
2021-02-21 16:00 4.52 2270 42000 (1938) 562 (1934) 4170 807 925 1150 1410 2380 3760 4490 8630 15900
2021-02-21 15:30 4.53 2290 42000 (1938) 562 (1934) 4170 807 925 1150 1410 2380 3760 4490 8630 15900
2021-02-21 15:00 4.55 2310 42000 (1938) 562 (1934) 4170 807 925 1150 1410 2380 3760 4490 8630 15900
2021-02-21 14:30 4.59 2370 42000 (1938) 562 (1934) 4170 807 925 1150 1410 2380 3760 4490 8630 15900
2021-02-21 14:00 4.62 2410 42000 (1938) 562 (1934) 4170 807 925 1150 1410 2380 3760 4490 8630 15900
2021-02-21 13:30 4.65 2450 42000 (1938) 562 (1934) 4170 807 925 1150 1410 2380 3760 4490 8630 15900
2021-02-21 13:00 4.67 2480 42000 (1938) 562 (1934) 4170 807 925 1150 1410 2380 3760 4490 8630 15900
2021-02-21 12:30 4.68 2490 42000 (1938) 562 (1934) 4170 807 925 1150 1410 2380 3760 4490 8630 15900
2021-02-21 12:00 4.68 2490 42000 (1938) 562 (1934) 4170 807 925 1150 1410 2380 3760 4490 8630 15900
2021-02-21 11:30 4.66 2460 42000 (1938) 562 (1934) 4170 807 925 1150 1410 2380 3760 4490 8630 15900
2021-02-21 11:00 4.63 2420 42000 (1938) 562 (1934) 4170 807 925 1150 1410 2380 3760 4490 8630 15900
2021-02-21 10:30 4.59 2370 42000 (1938) 562 (1934) 4170 807 925 1150 1410 2380 3760 4490 8630 15900
2021-02-21 10:00 4.54 2300 42000 (1938) 562 (1934) 4170 807 925 1150 1410 2380 3760 4490 8630 15900
2021-02-21 09:30 4.51 2260 42000 (1938) 562 (1934) 4170 807 925 1150 1410 2380 3760 4490 8630 15900
2021-02-21 09:00 4.49 2230 42000 (1938) 562 (1934) 4170 807 925 1150 1410 2380 3760 4490 8630 15900
2021-02-21 08:30 4.48 2220 42000 (1938) 562 (1934) 4170 807 925 1150 1410 2380 3760 4490 8630 15900
2021-02-21 08:00 4.49 2230 42000 (1938) 562 (1934) 4170 807 925 1150 1410 2380 3760 4490 8630 15900
2021-02-21 07:30 4.49 2230 42000 (1938) 562 (1934) 4170 807 925 1150 1410 2380 3760 4490 8630 15900
2021-02-21 07:00 4.51 2260 42000 (1938) 562 (1934) 4170 807 925 1150 1410 2380 3760 4490 8630 15900
2021-02-21 06:30 4.51 2260 42000 (1938) 562 (1934) 4170 807 925 1150 1410 2380 3760 4490 8630 15900
2021-02-21 06:00 4.53 2290 42000 (1938) 562 (1934) 4170 807 925 1150 1410 2380 3760 4490 8630 15900
2021-02-21 05:30 4.54 2300 42000 (1938) 562 (1934) 4170 807 925 1150 1410 2380 3760 4490 8630 15900
2021-02-21 05:00 4.56 2330 42000 (1938) 562 (1934) 4170 807 925 1150 1410 2380 3760 4490 8630 15900
2021-02-21 04:30 4.57 2340 42000 (1938) 562 (1934) 4170 807 925 1150 1410 2380 3760 4490 8630 15900
2021-02-21 04:00 4.59 2370 42000 (1938) 562 (1934) 4170 807 925 1150 1410 2380 3760 4490 8630 15900
2021-02-21 03:30 4.60 2380 42000 (1938) 562 (1934) 4170 807 925 1150 1410 2380 3760 4490 8630 15900
2021-02-21 03:00 4.61 2400 42000 (1938) 562 (1934) 4170 807 925 1150 1410 2380 3760 4490 8630 15900
2021-02-21 02:30 4.61 2400 42000 (1938) 562 (1934) 4170 807 925 1150 1410 2380 3760 4490 8630 15900
2021-02-21 02:00 4.63 2420 42000 (1938) 562 (1934) 4170 807 925 1150 1410 2380 3760 4490 8630 15900
2021-02-21 01:30 4.64 2440 42000 (1938) 562 (1934) 4170 807 925 1150 1410 2380 3760 4490 8630 15900
2021-02-21 01:00 4.65 2450 42000 (1938) 562 (1934) 4170 807 925 1150 1410 2380 3760 4490 8630 15900
2021-02-21 00:30 4.66 2460 42000 (1938) 562 (1934) 4170 807 925 1150 1410 2380 3760 4490 8630 15900
2021-02-21 00:00 4.67 2480 42000 (1938) 562 (1934) 4170 807 925 1150 1410 2380 3760 4490 8630 15900
2021-02-20 23:30 4.66 2460 43100 (1938) 532 (1934) 4040 765 907 1120 1190 2230 3730 4410 6670 13000
2021-02-20 23:00 4.66 2460 43100 (1938) 532 (1934) 4040 765 907 1120 1190 2230 3730 4410 6670 13000
2021-02-20 22:30 4.64 2440 43100 (1938) 532 (1934) 4040 765 907 1120 1190 2230 3730 4410 6670 13000
2021-02-20 22:00 4.61 2400 43100 (1938) 532 (1934) 4040 765 907 1120 1190 2230 3730 4410 6670 13000
2021-02-20 21:30 4.58 2350 43100 (1938) 532 (1934) 4040 765 907 1120 1190 2230 3730 4410 6670 13000
2021-02-20 21:00 4.57 2340 43100 (1938) 532 (1934) 4040 765 907 1120 1190 2230 3730 4410 6670 13000
2021-02-20 20:30 4.58 2350 43100 (1938) 532 (1934) 4040 765 907 1120 1190 2230 3730 4410 6670 13000
2021-02-20 20:00 4.59 2370 43100 (1938) 532 (1934) 4040 765 907 1120 1190 2230 3730 4410 6670 13000
2021-02-20 19:30 4.61 2400 43100 (1938) 532 (1934) 4040 765 907 1120 1190 2230 3730 4410 6670 13000
2021-02-20 19:00 4.61 2400 43100 (1938) 532 (1934) 4040 765 907 1120 1190 2230 3730 4410 6670 13000
2021-02-20 18:30 4.62 2410 43100 (1938) 532 (1934) 4040 765 907 1120 1190 2230 3730 4410 6670 13000
2021-02-20 18:00 4.64 2440 43100 (1938) 532 (1934) 4040 765 907 1120 1190 2230 3730 4410 6670 13000
2021-02-20 17:30 4.65 2450 43100 (1938) 532 (1934) 4040 765 907 1120 1190 2230 3730 4410 6670 13000
2021-02-20 17:00 4.66 2460 43100 (1938) 532 (1934) 4040 765 907 1120 1190 2230 3730 4410 6670 13000
2021-02-20 16:30 4.69 2510 43100 (1938) 532 (1934) 4040 765 907 1120 1190 2230 3730 4410 6670 13000
2021-02-20 16:00 4.73 2560 43100 (1938) 532 (1934) 4040 765 907 1120 1190 2230 3730 4410 6670 13000
2021-02-20 15:30 4.78 2630 43100 (1938) 532 (1934) 4040 765 907 1120 1190 2230 3730 4410 6670 13000
2021-02-20 15:00 4.82 2690 43100 (1938) 532 (1934) 4040 765 907 1120 1190 2230 3730 4410 6670 13000
2021-02-20 14:30 4.90 2800 43100 (1938) 532 (1934) 4040 765 907 1120 1190 2230 3730 4410 6670 13000
2021-02-20 14:00 4.95 2880 43100 (1938) 532 (1934) 4040 765 907 1120 1190 2230 3730 4410 6670 13000
2021-02-20 13:30 4.98 2920 43100 (1938) 532 (1934) 4040 765 907 1120 1190 2230 3730 4410 6670 13000
2021-02-20 13:00 4.99 2930 43100 (1938) 532 (1934) 4040 765 907 1120 1190 2230 3730 4410 6670 13000
2021-02-20 12:30 5.00 2950 43100 (1938) 532 (1934) 4040 765 907 1120 1190 2230 3730 4410 6670 13000
2021-02-20 12:00 5.00 2950 43100 (1938) 532 (1934) 4040 765 907 1120 1190 2230 3730 4410 6670 13000
2021-02-20 11:30 4.99 2930 43100 (1938) 532 (1934) 4040 765 907 1120 1190 2230 3730 4410 6670 13000
2021-02-20 11:00 4.96 2890 43100 (1938) 532 (1934) 4040 765 907 1120 1190 2230 3730 4410 6670 13000
2021-02-20 10:30 4.93 2850 43100 (1938) 532 (1934) 4040 765 907 1120 1190 2230 3730 4410 6670 13000
2021-02-20 10:00 4.92 2830 43100 (1938) 532 (1934) 4040 765 907 1120 1190 2230 3730 4410 6670 13000
2021-02-20 09:30 4.94 2860 43100 (1938) 532 (1934) 4040 765 907 1120 1190 2230 3730 4410 6670 13000
2021-02-20 09:00 4.95 2880 43100 (1938) 532 (1934) 4040 765 907 1120 1190 2230 3730 4410 6670 13000
2021-02-20 08:30 4.96 2890 43100 (1938) 532 (1934) 4040 765 907 1120 1190 2230 3730 4410 6670 13000
2021-02-20 08:00 4.97 2910 43100 (1938) 532 (1934) 4040 765 907 1120 1190 2230 3730 4410 6670 13000
2021-02-20 07:30 4.98 2920 43100 (1938) 532 (1934) 4040 765 907 1120 1190 2230 3730 4410 6670 13000
2021-02-20 07:00 4.98 2920 43100 (1938) 532 (1934) 4040 765 907 1120 1190 2230 3730 4410 6670 13000
2021-02-20 06:30 5.00 2950 43100 (1938) 532 (1934) 4040 765 907 1120 1190 2230 3730 4410 6670 13000
2021-02-20 06:00 5.00 2950 43100 (1938) 532 (1934) 4040 765 907 1120 1190 2230 3730 4410 6670 13000
2021-02-20 05:30 5.00 2950 43100 (1938) 532 (1934) 4040 765 907 1120 1190 2230 3730 4410 6670 13000
2021-02-20 05:00 5.00 2950 43100 (1938) 532 (1934) 4040 765 907 1120 1190 2230 3730 4410 6670 13000
2021-02-20 04:30 5.01 2960 43100 (1938) 532 (1934) 4040 765 907 1120 1190 2230 3730 4410 6670 13000
2021-02-20 04:00 5.00 2950 43100 (1938) 532 (1934) 4040 765 907 1120 1190 2230 3730 4410 6670 13000
2021-02-20 03:30 4.99 2930 43100 (1938) 532 (1934) 4040 765 907 1120 1190 2230 3730 4410 6670 13000
2021-02-20 03:00 5.00 2950 43100 (1938) 532 (1934) 4040 765 907 1120 1190 2230 3730 4410 6670 13000
2021-02-20 02:30 4.99 2930 43100 (1938) 532 (1934) 4040 765 907 1120 1190 2230 3730 4410 6670 13000
2021-02-20 02:00 4.99 2930 43100 (1938) 532 (1934) 4040 765 907 1120 1190 2230 3730 4410 6670 13000
2021-02-20 01:30 5.00 2950 43100 (1938) 532 (1934) 4040 765 907 1120 1190 2230 3730 4410 6670 13000
2021-02-20 01:00 5.00 2950 43100 (1938) 532 (1934) 4040 765 907 1120 1190 2230 3730 4410 6670 13000
2021-02-20 00:30 5.00 2950 43100 (1938) 532 (1934) 4040 765 907 1120 1190 2230 3730 4410 6670 13000
2021-02-20 00:00 5.00 2950 43100 (1938) 532 (1934) 4040 765 907 1120 1190 2230 3730 4410 6670 13000

A total of 369 rows are displayed for years 1904 through 2020.